sensor_id;sensor_type;location;lat;lon;timestamp;P1;durP1;ratioP1;P2;durP2;ratioP2
22144;SDS011;11238;48.730;11.566;2023-01-15T00:01:20;1.27;;;0.80;;
22144;SDS011;11238;48.730;11.566;2023-01-15T00:03:51;1.48;;;0.90;;
22144;SDS011;11238;48.730;11.566;2023-01-15T00:06:19;1.73;;;1.00;;
22144;SDS011;11238;48.730;11.566;2023-01-15T00:08:46;1.70;;;1.00;;
22144;SDS011;11238;48.730;11.566;2023-01-15T00:11:12;1.92;;;0.80;;
22144;SDS011;11238;48.730;11.566;2023-01-15T00:13:38;2.22;;;1.00;;
22144;SDS011;11238;48.730;11.566;2023-01-15T00:16:04;1.48;;;1.00;;
22144;SDS011;11238;48.730;11.566;2023-01-15T00:18:32;0.80;;;0.80;;
22144;SDS011;11238;48.730;11.566;2023-01-15T00:20:58;2.22;;;0.90;;
22144;SDS011;11238;48.730;11.566;2023-01-15T00:26:18;2.72;;;0.90;;
22144;SDS011;11238;48.730;11.566;2023-01-15T00:29:03;1.08;;;0.73;;
22144;SDS011;11238;48.730;11.566;2023-01-15T00:31:30;1.52;;;0.82;;
22144;SDS011;11238;48.730;11.566;2023-01-15T00:33:57;1.65;;;0.80;;
22144;SDS011;11238;48.730;11.566;2023-01-15T00:36:23;2.75;;;1.00;;
22144;SDS011;11238;48.730;11.566;2023-01-15T00:38:50;1.75;;;0.90;;
22144;SDS011;11238;48.730;11.566;2023-01-15T00:41:17;1.70;;;0.80;;
22144;SDS011;11238;48.730;11.566;2023-01-15T00:43:43;1.02;;;0.80;;
22144;SDS011;11238;48.730;11.566;2023-01-15T00:46:11;2.78;;;0.82;;
22144;SDS011;11238;48.730;11.566;2023-01-15T00:48:37;4.40;;;0.98;;
22144;SDS011;11238;48.730;11.566;2023-01-15T00:51:04;0.80;;;0.80;;
22144;SDS011;11238;48.730;11.566;2023-01-15T00:53:31;2.72;;;0.90;;
22144;SDS011;11238;48.730;11.566;2023-01-15T00:55:58;1.42;;;0.90;;
22144;SDS011;11238;48.730;11.566;2023-01-15T00:58:26;3.42;;;1.00;;
22144;SDS011;11238;48.730;11.566;2023-01-15T01:00:53;4.68;;;1.10;;
22144;SDS011;11238;48.730;11.566;2023-01-15T01:03:20;1.58;;;0.90;;
22144;SDS011;11238;48.730;11.566;2023-01-15T01:05:47;1.00;;;0.90;;
22144;SDS011;11238;48.730;11.566;2023-01-15T01:08:13;1.10;;;0.80;;
22144;SDS011;11238;48.730;11.566;2023-01-15T01:10:39;1.75;;;0.93;;
22144;SDS011;11238;48.730;11.566;2023-01-15T01:13:05;0.75;;;0.75;;
22144;SDS011;11238;48.730;11.566;2023-01-15T01:15:34;3.35;;;1.08;;
22144;SDS011;11238;48.730;11.566;2023-01-15T01:18:01;1.13;;;0.90;;
22144;SDS011;11238;48.730;11.566;2023-01-15T01:20:28;1.10;;;1.00;;
22144;SDS011;11238;48.730;11.566;2023-01-15T01:22:54;1.75;;;0.90;;
22144;SDS011;11238;48.730;11.566;2023-01-15T01:25:20;1.13;;;0.90;;
22144;SDS011;11238;48.730;11.566;2023-01-15T01:27:46;1.77;;;0.95;;
22144;SDS011;11238;48.730;11.566;2023-01-15T01:30:13;1.52;;;1.02;;
22144;SDS011;11238;48.730;11.566;2023-01-15T01:32:42;0.82;;;0.80;;
22144;SDS011;11238;48.730;11.566;2023-01-15T01:35:09;4.45;;;1.02;;
22144;SDS011;11238;48.730;11.566;2023-01-15T01:37:35;1.02;;;0.93;;
22144;SDS011;11238;48.730;11.566;2023-01-15T01:40:01;1.50;;;1.00;;
22144;SDS011;11238;48.730;11.566;2023-01-15T01:42:28;1.60;;;1.10;;
22144;SDS011;11238;48.730;11.566;2023-01-15T01:44:59;1.67;;;1.00;;
22144;SDS011;11238;48.730;11.566;2023-01-15T01:47:28;1.20;;;1.00;;
22144;SDS011;11238;48.730;11.566;2023-01-15T01:49:57;1.20;;;1.10;;
22144;SDS011;11238;48.730;11.566;2023-01-15T01:52:29;1.48;;;1.02;;
22144;SDS011;11238;48.730;11.566;2023-01-15T01:54:59;1.88;;;1.17;;
22144;SDS011;11238;48.730;11.566;2023-01-15T01:57:26;1.98;;;1.23;;
22144;SDS011;11238;48.730;11.566;2023-01-15T01:59:55;1.52;;;1.10;;
22144;SDS011;11238;48.730;11.566;2023-01-15T02:02:22;1.83;;;1.00;;
22144;SDS011;11238;48.730;11.566;2023-01-15T02:04:48;1.50;;;1.10;;
22144;SDS011;11238;48.730;11.566;2023-01-15T02:07:15;1.77;;;1.15;;
22144;SDS011;11238;48.730;11.566;2023-01-15T02:09:42;1.48;;;1.25;;
22144;SDS011;11238;48.730;11.566;2023-01-15T02:12:13;1.42;;;1.13;;
22144;SDS011;11238;48.730;11.566;2023-01-15T02:15:01;1.10;;;1.00;;
22144;SDS011;11238;48.730;11.566;2023-01-15T02:17:33;1.83;;;1.20;;
22144;SDS011;11238;48.730;11.566;2023-01-15T02:20:15;2.30;;;1.20;;
22144;SDS011;11238;48.730;11.566;2023-01-15T02:28:28;3.10;;;1.38;;
22144;SDS011;11238;48.730;11.566;2023-01-15T02:34:04;2.55;;;1.20;;
22144;SDS011;11238;48.730;11.566;2023-01-15T02:36:34;1.15;;;1.05;;
22144;SDS011;11238;48.730;11.566;2023-01-15T02:39:08;1.65;;;1.08;;
22144;SDS011;11238;48.730;11.566;2023-01-15T02:41:38;1.95;;;1.00;;
22144;SDS011;11238;48.730;11.566;2023-01-15T02:44:09;2.15;;;1.20;;
22144;SDS011;11238;48.730;11.566;2023-01-15T02:46:37;3.28;;;1.23;;
22144;SDS011;11238;48.730;11.566;2023-01-15T02:49:08;3.17;;;1.17;;
22144;SDS011;11238;48.730;11.566;2023-01-15T02:51:47;2.50;;;1.10;;
22144;SDS011;11238;48.730;11.566;2023-01-15T02:54:26;1.13;;;1.00;;
22144;SDS011;11238;48.730;11.566;2023-01-15T02:56:57;1.63;;;1.10;;
22144;SDS011;11238;48.730;11.566;2023-01-15T02:59:29;1.33;;;1.08;;
22144;SDS011;11238;48.730;11.566;2023-01-15T03:02:00;1.25;;;1.00;;
22144;SDS011;11238;48.730;11.566;2023-01-15T03:07:05;1.30;;;1.20;;
22144;SDS011;11238;48.730;11.566;2023-01-15T03:09:34;1.50;;;0.93;;
22144;SDS011;11238;48.730;11.566;2023-01-15T03:17:18;1.48;;;0.90;;
22144;SDS011;11238;48.730;11.566;2023-01-15T03:20:00;1.88;;;1.40;;
22144;SDS011;11238;48.730;11.566;2023-01-15T03:22:33;1.70;;;1.10;;
22144;SDS011;11238;48.730;11.566;2023-01-15T03:25:06;1.52;;;1.20;;
22144;SDS011;11238;48.730;11.566;2023-01-15T03:27:52;3.53;;;1.17;;
22144;SDS011;11238;48.730;11.566;2023-01-15T03:30:22;1.48;;;1.10;;
22144;SDS011;11238;48.730;11.566;2023-01-15T03:32:49;1.00;;;1.00;;
22144;SDS011;11238;48.730;11.566;2023-01-15T03:38:33;1.98;;;1.27;;
22144;SDS011;11238;48.730;11.566;2023-01-15T03:53:13;1.35;;;1.00;;
22144;SDS011;11238;48.730;11.566;2023-01-15T03:55:52;3.10;;;1.10;;
22144;SDS011;11238;48.730;11.566;2023-01-15T03:58:38;1.40;;;1.10;;
22144;SDS011;11238;48.730;11.566;2023-01-15T04:01:12;1.42;;;1.00;;
22144;SDS011;11238;48.730;11.566;2023-01-15T04:03:41;1.10;;;1.00;;
22144;SDS011;11238;48.730;11.566;2023-01-15T04:06:10;1.23;;;1.00;;
22144;SDS011;11238;48.730;11.566;2023-01-15T04:08:37;2.08;;;1.20;;
22144;SDS011;11238;48.730;11.566;2023-01-15T04:11:06;1.60;;;1.00;;
22144;SDS011;11238;48.730;11.566;2023-01-15T04:13:40;1.70;;;1.15;;
22144;SDS011;11238;48.730;11.566;2023-01-15T04:16:14;1.67;;;1.10;;
22144;SDS011;11238;48.730;11.566;2023-01-15T04:18:45;1.50;;;0.95;;
22144;SDS011;11238;48.730;11.566;2023-01-15T04:21:12;2.38;;;1.20;;
22144;SDS011;11238;48.730;11.566;2023-01-15T04:23:38;3.75;;;1.23;;
22144;SDS011;11238;48.730;11.566;2023-01-15T04:26:04;1.55;;;1.05;;
22144;SDS011;11238;48.730;11.566;2023-01-15T04:28:32;1.88;;;1.00;;
22144;SDS011;11238;48.730;11.566;2023-01-15T04:30:58;2.00;;;1.10;;
22144;SDS011;11238;48.730;11.566;2023-01-15T04:33:24;1.40;;;1.13;;
22144;SDS011;11238;48.730;11.566;2023-01-15T04:35:50;1.10;;;1.00;;
22144;SDS011;11238;48.730;11.566;2023-01-15T04:38:16;0.90;;;0.80;;
22144;SDS011;11238;48.730;11.566;2023-01-15T04:40:43;2.03;;;0.98;;
22144;SDS011;11238;48.730;11.566;2023-01-15T04:43:27;1.10;;;0.90;;
22144;SDS011;11238;48.730;11.566;2023-01-15T04:46:12;1.40;;;1.10;;
22144;SDS011;11238;48.730;11.566;2023-01-15T04:48:38;1.25;;;1.05;;
22144;SDS011;11238;48.730;11.566;2023-01-15T04:51:05;1.20;;;0.90;;
22144;SDS011;11238;48.730;11.566;2023-01-15T04:53:32;1.13;;;1.02;;
22144;SDS011;11238;48.730;11.566;2023-01-15T04:55:59;1.20;;;0.93;;
22144;SDS011;11238;48.730;11.566;2023-01-15T04:58:26;1.45;;;1.00;;
22144;SDS011;11238;48.730;11.566;2023-01-15T05:00:52;2.00;;;1.00;;
22144;SDS011;11238;48.730;11.566;2023-01-15T05:03:18;1.98;;;1.17;;
22144;SDS011;11238;48.730;11.566;2023-01-15T05:05:44;1.08;;;1.00;;
22144;SDS011;11238;48.730;11.566;2023-01-15T05:08:09;1.25;;;1.13;;
22144;SDS011;11238;48.730;11.566;2023-01-15T05:10:35;1.38;;;1.10;;
22144;SDS011;11238;48.730;11.566;2023-01-15T05:13:01;1.80;;;0.80;;
22144;SDS011;11238;48.730;11.566;2023-01-15T05:15:27;1.98;;;1.00;;
22144;SDS011;11238;48.730;11.566;2023-01-15T05:17:53;1.10;;;0.93;;
22144;SDS011;11238;48.730;11.566;2023-01-15T05:20:20;2.28;;;1.00;;
22144;SDS011;11238;48.730;11.566;2023-01-15T05:22:46;3.17;;;1.25;;
22144;SDS011;11238;48.730;11.566;2023-01-15T05:25:12;1.10;;;0.88;;
22144;SDS011;11238;48.730;11.566;2023-01-15T05:27:38;1.23;;;1.00;;
22144;SDS011;11238;48.730;11.566;2023-01-15T05:30:05;1.92;;;1.00;;
22144;SDS011;11238;48.730;11.566;2023-01-15T05:32:31;0.90;;;0.90;;
22144;SDS011;11238;48.730;11.566;2023-01-15T05:34:57;1.77;;;1.13;;
22144;SDS011;11238;48.730;11.566;2023-01-15T05:37:23;1.42;;;1.00;;
22144;SDS011;11238;48.730;11.566;2023-01-15T05:39:48;1.42;;;1.02;;
22144;SDS011;11238;48.730;11.566;2023-01-15T05:42:14;1.95;;;1.00;;
22144;SDS011;11238;48.730;11.566;2023-01-15T05:44:40;1.67;;;0.98;;
22144;SDS011;11238;48.730;11.566;2023-01-15T05:47:06;1.92;;;1.08;;
22144;SDS011;11238;48.730;11.566;2023-01-15T05:49:34;1.20;;;0.80;;
22144;SDS011;11238;48.730;11.566;2023-01-15T05:52:00;1.10;;;1.00;;
22144;SDS011;11238;48.730;11.566;2023-01-15T05:54:28;0.88;;;0.88;;
22144;SDS011;11238;48.730;11.566;2023-01-15T05:56:55;6.13;;;1.15;;
22144;SDS011;11238;48.730;11.566;2023-01-15T05:59:23;1.38;;;1.05;;
22144;SDS011;11238;48.730;11.566;2023-01-15T06:01:50;1.48;;;1.38;;
22144;SDS011;11238;48.730;11.566;2023-01-15T06:04:17;0.85;;;0.85;;
22144;SDS011;11238;48.730;11.566;2023-01-15T06:06:45;0.80;;;0.80;;
22144;SDS011;11238;48.730;11.566;2023-01-15T06:09:12;3.05;;;1.10;;
22144;SDS011;11238;48.730;11.566;2023-01-15T06:11:38;1.05;;;0.90;;
22144;SDS011;11238;48.730;11.566;2023-01-15T06:14:05;1.20;;;0.90;;
22144;SDS011;11238;48.730;11.566;2023-01-15T06:16:31;0.80;;;0.80;;
22144;SDS011;11238;48.730;11.566;2023-01-15T06:18:59;0.88;;;0.75;;
22144;SDS011;11238;48.730;11.566;2023-01-15T06:21:25;0.70;;;0.70;;
22144;SDS011;11238;48.730;11.566;2023-01-15T06:23:52;0.65;;;0.65;;
22144;SDS011;11238;48.730;11.566;2023-01-15T06:26:18;1.20;;;0.60;;
22144;SDS011;11238;48.730;11.566;2023-01-15T06:28:44;0.60;;;0.60;;
22144;SDS011;11238;48.730;11.566;2023-01-15T06:31:11;0.70;;;0.70;;
22144;SDS011;11238;48.730;11.566;2023-01-15T06:33:39;3.30;;;0.80;;
22144;SDS011;11238;48.730;11.566;2023-01-15T06:36:10;0.55;;;0.55;;
22144;SDS011;11238;48.730;11.566;2023-01-15T06:38:38;0.80;;;0.70;;
22144;SDS011;11238;48.730;11.566;2023-01-15T06:41:04;0.65;;;0.65;;
22144;SDS011;11238;48.730;11.566;2023-01-15T06:43:54;1.45;;;0.77;;
22144;SDS011;11238;48.730;11.566;2023-01-15T06:46:39;0.60;;;0.60;;
22144;SDS011;11238;48.730;11.566;2023-01-15T06:49:41;0.88;;;0.70;;
22144;SDS011;11238;48.730;11.566;2023-01-15T06:52:07;1.30;;;1.02;;
22144;SDS011;11238;48.730;11.566;2023-01-15T06:54:33;0.52;;;0.52;;
22144;SDS011;11238;48.730;11.566;2023-01-15T06:56:59;1.20;;;0.70;;
22144;SDS011;11238;48.730;11.566;2023-01-15T06:59:24;0.75;;;0.60;;
22144;SDS011;11238;48.730;11.566;2023-01-15T07:01:50;0.73;;;0.50;;
22144;SDS011;11238;48.730;11.566;2023-01-15T07:04:16;1.75;;;0.50;;
22144;SDS011;11238;48.730;11.566;2023-01-15T07:06:42;0.60;;;0.60;;
22144;SDS011;11238;48.730;11.566;2023-01-15T07:09:08;1.38;;;0.60;;
22144;SDS011;11238;48.730;11.566;2023-01-15T07:11:34;0.50;;;0.50;;
22144;SDS011;11238;48.730;11.566;2023-01-15T07:14:00;0.88;;;0.60;;
22144;SDS011;11238;48.730;11.566;2023-01-15T07:16:32;2.25;;;0.60;;
22144;SDS011;11238;48.730;11.566;2023-01-15T07:19:02;0.90;;;0.60;;
22144;SDS011;11238;48.730;11.566;2023-01-15T07:21:28;0.50;;;0.50;;
22144;SDS011;11238;48.730;11.566;2023-01-15T07:23:57;0.63;;;0.63;;
22144;SDS011;11238;48.730;11.566;2023-01-15T07:26:23;0.52;;;0.50;;
22144;SDS011;11238;48.730;11.566;2023-01-15T07:28:50;1.15;;;0.60;;
22144;SDS011;11238;48.730;11.566;2023-01-15T07:31:16;0.82;;;0.60;;
22144;SDS011;11238;48.730;11.566;2023-01-15T07:33:42;0.57;;;0.50;;
22144;SDS011;11238;48.730;11.566;2023-01-15T07:36:08;0.50;;;0.50;;
22144;SDS011;11238;48.730;11.566;2023-01-15T07:38:33;0.60;;;0.60;;
22144;SDS011;11238;48.730;11.566;2023-01-15T07:40:59;1.40;;;0.68;;
22144;SDS011;11238;48.730;11.566;2023-01-15T07:43:46;0.50;;;0.50;;
22144;SDS011;11238;48.730;11.566;2023-01-15T07:46:30;0.50;;;0.50;;
22144;SDS011;11238;48.730;11.566;2023-01-15T07:49:14;2.50;;;0.60;;
22144;SDS011;11238;48.730;11.566;2023-01-15T07:51:58;0.85;;;0.60;;
22144;SDS011;11238;48.730;11.566;2023-01-15T07:54:24;1.80;;;0.60;;
22144;SDS011;11238;48.730;11.566;2023-01-15T07:56:50;6.32;;;0.80;;
22144;SDS011;11238;48.730;11.566;2023-01-15T07:59:18;1.02;;;0.60;;
22144;SDS011;11238;48.730;11.566;2023-01-15T08:01:44;0.50;;;0.50;;
22144;SDS011;11238;48.730;11.566;2023-01-15T08:04:10;0.55;;;0.52;;
22144;SDS011;11238;48.730;11.566;2023-01-15T08:06:36;0.57;;;0.57;;
22144;SDS011;11238;48.730;11.566;2023-01-15T08:09:02;1.85;;;0.60;;
22144;SDS011;11238;48.730;11.566;2023-01-15T08:11:29;1.15;;;0.60;;
22144;SDS011;11238;48.730;11.566;2023-01-15T08:14:13;0.60;;;0.60;;
22144;SDS011;11238;48.730;11.566;2023-01-15T08:16:58;0.60;;;0.50;;
22144;SDS011;11238;48.730;11.566;2023-01-15T08:19:24;0.60;;;0.60;;
22144;SDS011;11238;48.730;11.566;2023-01-15T08:21:51;3.10;;;0.57;;
22144;SDS011;11238;48.730;11.566;2023-01-15T08:24:16;0.57;;;0.57;;
22144;SDS011;11238;48.730;11.566;2023-01-15T08:26:42;0.60;;;0.60;;
22144;SDS011;11238;48.730;11.566;2023-01-15T08:29:08;0.90;;;0.68;;
22144;SDS011;11238;48.730;11.566;2023-01-15T08:31:34;0.95;;;0.50;;
22144;SDS011;11238;48.730;11.566;2023-01-15T08:34:01;0.60;;;0.60;;
22144;SDS011;11238;48.730;11.566;2023-01-15T08:36:27;1.20;;;0.70;;
22144;SDS011;11238;48.730;11.566;2023-01-15T08:38:53;1.10;;;0.50;;
22144;SDS011;11238;48.730;11.566;2023-01-15T08:41:18;0.50;;;0.50;;
22144;SDS011;11238;48.730;11.566;2023-01-15T08:43:44;2.38;;;0.68;;
22144;SDS011;11238;48.730;11.566;2023-01-15T08:46:10;0.73;;;0.60;;
22144;SDS011;11238;48.730;11.566;2023-01-15T08:48:36;0.88;;;0.50;;
22144;SDS011;11238;48.730;11.566;2023-01-15T08:51:06;0.50;;;0.50;;
22144;SDS011;11238;48.730;11.566;2023-01-15T08:53:33;0.60;;;0.60;;
22144;SDS011;11238;48.730;11.566;2023-01-15T08:56:00;2.42;;;0.50;;
22144;SDS011;11238;48.730;11.566;2023-01-15T08:58:27;0.95;;;0.60;;
22144;SDS011;11238;48.730;11.566;2023-01-15T09:00:55;1.40;;;0.65;;
22144;SDS011;11238;48.730;11.566;2023-01-15T09:03:27;0.90;;;0.70;;
22144;SDS011;11238;48.730;11.566;2023-01-15T09:05:53;0.60;;;0.60;;
22144;SDS011;11238;48.730;11.566;2023-01-15T09:08:22;2.15;;;0.65;;
22144;SDS011;11238;48.730;11.566;2023-01-15T09:10:48;0.60;;;0.60;;
22144;SDS011;11238;48.730;11.566;2023-01-15T09:13:13;1.20;;;0.60;;
22144;SDS011;11238;48.730;11.566;2023-01-15T09:15:39;0.57;;;0.50;;
22144;SDS011;11238;48.730;11.566;2023-01-15T09:18:05;0.80;;;0.70;;
22144;SDS011;11238;48.730;11.566;2023-01-15T09:20:31;0.60;;;0.60;;
22144;SDS011;11238;48.730;11.566;2023-01-15T09:22:57;0.60;;;0.60;;
22144;SDS011;11238;48.730;11.566;2023-01-15T09:25:23;0.65;;;0.60;;
22144;SDS011;11238;48.730;11.566;2023-01-15T09:27:49;0.70;;;0.70;;
22144;SDS011;11238;48.730;11.566;2023-01-15T09:30:16;1.10;;;0.70;;
22144;SDS011;11238;48.730;11.566;2023-01-15T09:32:46;0.70;;;0.70;;
22144;SDS011;11238;48.730;11.566;2023-01-15T09:35:13;1.02;;;0.70;;
22144;SDS011;11238;48.730;11.566;2023-01-15T09:37:39;1.30;;;0.70;;
22144;SDS011;11238;48.730;11.566;2023-01-15T09:40:06;2.58;;;1.30;;
22144;SDS011;11238;48.730;11.566;2023-01-15T09:45:17;0.88;;;0.77;;
22144;SDS011;11238;48.730;11.566;2023-01-15T09:47:54;1.15;;;0.73;;
22144;SDS011;11238;48.730;11.566;2023-01-15T09:53:58;0.90;;;0.52;;
22144;SDS011;11238;48.730;11.566;2023-01-15T09:56:42;0.70;;;0.70;;
22144;SDS011;11238;48.730;11.566;2023-01-15T09:59:18;0.70;;;0.70;;
22144;SDS011;11238;48.730;11.566;2023-01-15T10:01:56;0.75;;;0.75;;
22144;SDS011;11238;48.730;11.566;2023-01-15T10:04:30;0.70;;;0.70;;
22144;SDS011;11238;48.730;11.566;2023-01-15T10:07:10;0.80;;;0.80;;
22144;SDS011;11238;48.730;11.566;2023-01-15T10:09:42;1.33;;;0.80;;
22144;SDS011;11238;48.730;11.566;2023-01-15T10:12:23;0.90;;;0.90;;
22144;SDS011;11238;48.730;11.566;2023-01-15T10:17:39;2.85;;;0.95;;
22144;SDS011;11238;48.730;11.566;2023-01-15T10:20:33;0.80;;;0.70;;
22144;SDS011;11238;48.730;11.566;2023-01-15T10:26:10;0.50;;;0.50;;
22144;SDS011;11238;48.730;11.566;2023-01-15T10:29:05;0.60;;;0.60;;
22144;SDS011;11238;48.730;11.566;2023-01-15T10:36:50;0.60;;;0.60;;
22144;SDS011;11238;48.730;11.566;2023-01-15T10:39:33;0.50;;;0.50;;
22144;SDS011;11238;48.730;11.566;2023-01-15T10:42:31;0.68;;;0.68;;
22144;SDS011;11238;48.730;11.566;2023-01-15T10:45:22;0.60;;;0.60;;
22144;SDS011;11238;48.730;11.566;2023-01-15T10:48:03;0.60;;;0.60;;
22144;SDS011;11238;48.730;11.566;2023-01-15T10:50:33;0.50;;;0.50;;
22144;SDS011;11238;48.730;11.566;2023-01-15T11:00:45;0.80;;;0.70;;
22144;SDS011;11238;48.730;11.566;2023-01-15T11:03:19;0.80;;;0.80;;
22144;SDS011;11238;48.730;11.566;2023-01-15T11:05:48;1.42;;;0.80;;
22144;SDS011;11238;48.730;11.566;2023-01-15T11:08:20;0.70;;;0.70;;
22144;SDS011;11238;48.730;11.566;2023-01-15T11:10:54;0.95;;;0.75;;
22144;SDS011;11238;48.730;11.566;2023-01-15T11:13:24;0.70;;;0.70;;
22144;SDS011;11238;48.730;11.566;2023-01-15T11:16:16;0.70;;;0.70;;
22144;SDS011;11238;48.730;11.566;2023-01-15T11:19:05;0.70;;;0.70;;
22144;SDS011;11238;48.730;11.566;2023-01-15T11:22:00;0.80;;;0.80;;
22144;SDS011;11238;48.730;11.566;2023-01-15T11:24:36;1.48;;;0.80;;
22144;SDS011;11238;48.730;11.566;2023-01-15T11:27:12;0.80;;;0.80;;
22144;SDS011;11238;48.730;11.566;2023-01-15T11:29:44;0.85;;;0.85;;
22144;SDS011;11238;48.730;11.566;2023-01-15T11:32:43;0.77;;;0.77;;
22144;SDS011;11238;48.730;11.566;2023-01-15T11:35:13;1.00;;;0.80;;
22144;SDS011;11238;48.730;11.566;2023-01-15T11:37:40;0.80;;;0.80;;
22144;SDS011;11238;48.730;11.566;2023-01-15T11:40:15;0.95;;;0.90;;
22144;SDS011;11238;48.730;11.566;2023-01-15T11:42:46;0.80;;;0.80;;
22144;SDS011;11238;48.730;11.566;2023-01-15T11:45:31;1.20;;;1.00;;
22144;SDS011;11238;48.730;11.566;2023-01-15T11:48:16;0.90;;;0.90;;
22144;SDS011;11238;48.730;11.566;2023-01-15T11:51:13;1.23;;;1.15;;
22144;SDS011;11238;48.730;11.566;2023-01-15T11:53:47;1.60;;;1.50;;
22144;SDS011;11238;48.730;11.566;2023-01-15T11:56:18;1.60;;;1.50;;
22144;SDS011;11238;48.730;11.566;2023-01-15T11:58:49;1.95;;;1.40;;
22144;SDS011;11238;48.730;11.566;2023-01-15T12:01:23;1.65;;;1.55;;
22144;SDS011;11238;48.730;11.566;2023-01-15T12:03:56;1.38;;;1.20;;
22144;SDS011;11238;48.730;11.566;2023-01-15T12:06:24;1.13;;;1.10;;
22144;SDS011;11238;48.730;11.566;2023-01-15T12:09:11;3.40;;;1.08;;
22144;SDS011;11238;48.730;11.566;2023-01-15T12:11:57;0.95;;;0.80;;
22144;SDS011;11238;48.730;11.566;2023-01-15T12:17:30;1.08;;;1.00;;
22144;SDS011;11238;48.730;11.566;2023-01-15T12:25:13;0.80;;;0.80;;
22144;SDS011;11238;48.730;11.566;2023-01-15T12:28:03;0.73;;;0.73;;
22144;SDS011;11238;48.730;11.566;2023-01-15T12:33:35;0.70;;;0.70;;
22144;SDS011;11238;48.730;11.566;2023-01-15T12:44:20;2.80;;;0.77;;
22144;SDS011;11238;48.730;11.566;2023-01-15T12:47:15;0.70;;;0.70;;
22144;SDS011;11238;48.730;11.566;2023-01-15T12:49:52;0.60;;;0.60;;
22144;SDS011;11238;48.730;11.566;2023-01-15T12:52:29;0.60;;;0.60;;
22144;SDS011;11238;48.730;11.566;2023-01-15T12:58:16;0.65;;;0.65;;
22144;SDS011;11238;48.730;11.566;2023-01-15T13:00:50;0.70;;;0.70;;
22144;SDS011;11238;48.730;11.566;2023-01-15T13:03:39;0.80;;;0.80;;
22144;SDS011;11238;48.730;11.566;2023-01-15T13:06:20;0.65;;;0.65;;
22144;SDS011;11238;48.730;11.566;2023-01-15T13:09:00;0.65;;;0.65;;
22144;SDS011;11238;48.730;11.566;2023-01-15T13:11:29;0.60;;;0.60;;
22144;SDS011;11238;48.730;11.566;2023-01-15T13:13:56;0.70;;;0.70;;
22144;SDS011;11238;48.730;11.566;2023-01-15T13:16:43;0.60;;;0.60;;
22144;SDS011;11238;48.730;11.566;2023-01-15T13:22:13;0.75;;;0.75;;
22144;SDS011;11238;48.730;11.566;2023-01-15T13:27:40;0.70;;;0.70;;
22144;SDS011;11238;48.730;11.566;2023-01-15T13:33:43;0.70;;;0.70;;
22144;SDS011;11238;48.730;11.566;2023-01-15T13:38:42;0.60;;;0.60;;
22144;SDS011;11238;48.730;11.566;2023-01-15T13:41:15;0.70;;;0.70;;
22144;SDS011;11238;48.730;11.566;2023-01-15T13:44:04;0.65;;;0.65;;
22144;SDS011;11238;48.730;11.566;2023-01-15T13:46:30;0.70;;;0.70;;
22144;SDS011;11238;48.730;11.566;2023-01-15T13:48:56;0.68;;;0.68;;
22144;SDS011;11238;48.730;11.566;2023-01-15T13:51:27;1.00;;;0.80;;
22144;SDS011;11238;48.730;11.566;2023-01-15T13:53:54;0.85;;;0.80;;
22144;SDS011;11238;48.730;11.566;2023-01-15T13:56:29;1.10;;;0.73;;
22144;SDS011;11238;48.730;11.566;2023-01-15T13:59:00;1.05;;;0.70;;
22144;SDS011;11238;48.730;11.566;2023-01-15T14:09:34;0.65;;;0.65;;
22144;SDS011;11238;48.730;11.566;2023-01-15T14:28:38;0.70;;;0.70;;
22144;SDS011;11238;48.730;11.566;2023-01-15T14:36:27;0.90;;;0.80;;
22144;SDS011;11238;48.730;11.566;2023-01-15T14:38:58;0.80;;;0.80;;
22144;SDS011;11238;48.730;11.566;2023-01-15T14:41:26;1.08;;;0.98;;
22144;SDS011;11238;48.730;11.566;2023-01-15T14:44:01;0.85;;;0.85;;
22144;SDS011;11238;48.730;11.566;2023-01-15T14:46:28;1.17;;;1.08;;
22144;SDS011;11238;48.730;11.566;2023-01-15T14:49:00;0.73;;;0.73;;
22144;SDS011;11238;48.730;11.566;2023-01-15T14:51:27;0.80;;;0.80;;
22144;SDS011;11238;48.730;11.566;2023-01-15T14:53:58;1.30;;;0.90;;
22144;SDS011;11238;48.730;11.566;2023-01-15T14:56:43;0.90;;;0.90;;
22144;SDS011;11238;48.730;11.566;2023-01-15T14:59:35;0.98;;;0.80;;
22144;SDS011;11238;48.730;11.566;2023-01-15T15:02:22;0.70;;;0.70;;
22144;SDS011;11238;48.730;11.566;2023-01-15T15:04:55;1.33;;;0.80;;
22144;SDS011;11238;48.730;11.566;2023-01-15T15:07:23;0.80;;;0.80;;
22144;SDS011;11238;48.730;11.566;2023-01-15T15:09:57;1.95;;;0.70;;
22144;SDS011;11238;48.730;11.566;2023-01-15T15:12:48;1.00;;;0.93;;
22144;SDS011;11238;48.730;11.566;2023-01-15T15:23:23;2.05;;;0.80;;
22144;SDS011;11238;48.730;11.566;2023-01-15T15:25:55;1.00;;;0.90;;
22144;SDS011;11238;48.730;11.566;2023-01-15T15:28:23;1.00;;;0.90;;
22144;SDS011;11238;48.730;11.566;2023-01-15T15:30:49;2.95;;;0.93;;
22144;SDS011;11238;48.730;11.566;2023-01-15T15:33:17;1.33;;;0.90;;
22144;SDS011;11238;48.730;11.566;2023-01-15T15:35:47;1.00;;;0.90;;
22144;SDS011;11238;48.730;11.566;2023-01-15T15:38:17;1.10;;;0.98;;
22144;SDS011;11238;48.730;11.566;2023-01-15T15:40:45;1.00;;;0.80;;
22144;SDS011;11238;48.730;11.566;2023-01-15T15:43:22;1.00;;;0.90;;
22144;SDS011;11238;48.730;11.566;2023-01-15T15:46:28;1.02;;;0.98;;
22144;SDS011;11238;48.730;11.566;2023-01-15T15:49:14;1.17;;;0.90;;
22144;SDS011;11238;48.730;11.566;2023-01-15T15:51:51;1.50;;;1.10;;
22144;SDS011;11238;48.730;11.566;2023-01-15T15:54:22;1.45;;;1.13;;
22144;SDS011;11238;48.730;11.566;2023-01-15T15:57:00;1.10;;;0.95;;
22144;SDS011;11238;48.730;11.566;2023-01-15T16:02:30;1.13;;;1.02;;
22144;SDS011;11238;48.730;11.566;2023-01-15T16:05:01;1.20;;;1.10;;
22144;SDS011;11238;48.730;11.566;2023-01-15T16:07:42;1.10;;;1.00;;
22144;SDS011;11238;48.730;11.566;2023-01-15T16:10:13;2.40;;;1.25;;
22144;SDS011;11238;48.730;11.566;2023-01-15T16:12:42;1.10;;;1.00;;
22144;SDS011;11238;48.730;11.566;2023-01-15T16:15:15;1.10;;;1.00;;
22144;SDS011;11238;48.730;11.566;2023-01-15T16:17:51;1.48;;;1.10;;
22144;SDS011;11238;48.730;11.566;2023-01-15T16:20:17;0.80;;;0.80;;
22144;SDS011;11238;48.730;11.566;2023-01-15T16:22:48;1.10;;;1.00;;
22144;SDS011;11238;48.730;11.566;2023-01-15T16:25:19;1.20;;;0.90;;
22144;SDS011;11238;48.730;11.566;2023-01-15T16:27:55;0.95;;;0.93;;
22144;SDS011;11238;48.730;11.566;2023-01-15T16:30:21;1.08;;;0.90;;
22144;SDS011;11238;48.730;11.566;2023-01-15T16:32:48;0.93;;;0.93;;
22144;SDS011;11238;48.730;11.566;2023-01-15T16:35:17;1.15;;;1.02;;
22144;SDS011;11238;48.730;11.566;2023-01-15T16:37:55;1.10;;;1.00;;
22144;SDS011;11238;48.730;11.566;2023-01-15T16:40:27;1.50;;;0.90;;
22144;SDS011;11238;48.730;11.566;2023-01-15T16:43:07;1.30;;;1.20;;
22144;SDS011;11238;48.730;11.566;2023-01-15T16:45:55;1.20;;;1.10;;
22144;SDS011;11238;48.730;11.566;2023-01-15T16:48:29;2.28;;;1.02;;
22144;SDS011;11238;48.730;11.566;2023-01-15T16:54:00;1.35;;;1.17;;
22144;SDS011;11238;48.730;11.566;2023-01-15T16:59:04;2.55;;;1.90;;
22144;SDS011;11238;48.730;11.566;2023-01-15T17:01:43;1.30;;;1.20;;
22144;SDS011;11238;48.730;11.566;2023-01-15T17:07:03;1.85;;;1.10;;
22144;SDS011;11238;48.730;11.566;2023-01-15T17:09:33;1.38;;;1.27;;
22144;SDS011;11238;48.730;11.566;2023-01-15T17:12:02;1.83;;;1.20;;
22144;SDS011;11238;48.730;11.566;2023-01-15T17:14:43;1.23;;;1.10;;
22144;SDS011;11238;48.730;11.566;2023-01-15T17:19:48;1.20;;;1.10;;
22144;SDS011;11238;48.730;11.566;2023-01-15T17:24:50;1.27;;;1.10;;
22144;SDS011;11238;48.730;11.566;2023-01-15T17:27:17;1.20;;;1.10;;